Time;durP1;ratioP1;P1;durP2;ratioP2;P2;SDS_P1;SDS_P2;PMS_P1;PMS_P2;Temp;Humidity;BMP_temperature;BMP_pressure;BME280_temperature;BME280_humidity;BME280_pressure;Samples;Min_cycle;Max_cycle;Signal;HPM_P1;HPM_P2
2023/09/23 00:00:40;;;;;;;1.00;0.80;;;;;;;23.73;100.00;99949.16;5071143;28;20670;-76
2023/09/23 00:03:08;;;;;;;5.47;1.58;;;;;;;23.77;100.00;99969.28;5070543;28;20290;-77
2023/09/23 00:05:39;;;;;;;6.25;1.50;;;;;;;23.82;100.00;99969.09;5070879;28;20187;-76
2023/09/23 00:08:07;;;;;;;1.05;0.95;;;;;;;23.63;100.00;99938.06;5070773;28;20202;-77
2023/09/23 00:10:34;;;;;;;5.50;1.77;;;;;;;23.69;100.00;99951.06;5070718;28;20194;-76
2023/09/23 00:13:00;;;;;;;16.05;2.67;;;;;;;23.53;100.00;99931.44;5070916;28;20230;-72
2023/09/23 00:15:27;;;;;;;0.70;0.70;;;;;;;23.66;100.00;99953.84;5071072;28;20565;-76
2023/09/23 00:17:55;;;;;;;1.33;1.20;;;;;;;23.55;100.00;99961.34;5070937;28;20207;-78
2023/09/23 00:20:22;;;;;;;1.10;1.00;;;;;;;23.40;100.00;99967.19;5071023;28;20211;-75
2023/09/23 00:22:53;;;;;;;2.83;1.33;;;;;;;23.39;100.00;99952.25;5070648;28;20194;-77
2023/09/23 00:25:20;;;;;;;1.88;1.10;;;;;;;23.37;100.00;99966.47;5071090;28;20195;-77
2023/09/23 00:27:48;;;;;;;1.95;1.17;;;;;;;23.35;100.00;99968.31;5071071;28;20202;-76
2023/09/23 00:30:15;;;;;;;1.55;1.13;;;;;;;23.32;100.00;99973.72;5070560;28;20202;-84
2023/09/23 00:32:43;;;;;;;2.47;1.08;;;;;;;23.30;100.00;99972.91;5071499;28;20633;-76
2023/09/23 00:35:12;;;;;;;1.88;1.60;;;;;;;23.24;100.00;99976.66;5074537;28;20194;-78
2023/09/23 00:37:40;;;;;;;12.27;2.30;;;;;;;23.22;100.00;99971.41;5074280;28;20269;-75
2023/09/23 00:40:17;;;;;;;3.70;1.20;;;;;;;23.37;100.00;99977.03;5074437;28;20213;-76
2023/09/23 00:42:44;;;;;;;5.25;1.60;;;;;;;23.15;100.00;99956.69;5073929;28;20202;-75
2023/09/23 00:45:15;;;;;;;6.43;2.47;;;;;;;22.75;100.00;99914.19;5074020;28;20248;-75
2023/09/23 00:47:43;;;;;;;1.83;1.23;;;;;;;23.22;100.00;99978.53;5074643;28;20187;-76
2023/09/23 00:50:19;;;;;;;0.60;0.60;;;;;;;23.17;100.00;99985.75;5074095;28;20682;-78
2023/09/23 00:52:49;;;;;;;4.22;1.35;;;;;;;23.11;100.00;99976.28;5074039;28;20694;-76
2023/09/23 00:55:18;;;;;;;2.08;0.90;;;;;;;23.26;100.00;99980.09;5074089;28;20689;-76
2023/09/23 00:57:47;;;;;;;3.67;1.73;;;;;;;23.16;100.00;99984.88;5074027;28;20205;-76
2023/09/23 01:00:17;;;;;;;3.55;1.35;;;;;;;22.95;100.00;99991.00;5074363;28;20199;-76
2023/09/23 01:02:47;;;;;;;5.43;1.42;;;;;;;22.94;100.00;99983.09;5037139;28;20203;-75
2023/09/23 01:05:18;;;;;;;7.43;1.02;;;;;;;22.87;100.00;99982.47;5074083;28;20650;-75
2023/09/23 01:07:46;;;;;;;2.17;1.00;;;;;;;22.66;100.00;99931.22;5074009;28;20211;-76
2023/09/23 01:10:13;;;;;;;2.13;0.93;;;;;;;22.73;100.00;99959.19;5073723;28;20190;-76
2023/09/23 01:12:41;;;;;;;2.15;1.35;;;;;;;23.01;100.00;99980.16;5073337;28;20245;-76
2023/09/23 01:15:09;;;;;;;0.85;0.85;;;;;;;22.41;100.00;99876.66;5073825;28;20229;-76
2023/09/23 01:17:37;;;;;;;2.03;1.38;;;;;;;22.91;100.00;99973.50;5073747;28;20199;-77
2023/09/23 01:20:10;;;;;;;0.60;0.60;;;;;;;22.93;100.00;99958.47;5073393;28;20237;-77
2023/09/23 01:22:39;;;;;;;0.88;0.75;;;;;;;23.11;100.00;99959.56;5073643;28;20637;-76
2023/09/23 01:25:07;;;;;;;1.02;1.02;;;;;;;23.09;100.00;99971.94;5074158;28;20199;-76
2023/09/23 01:27:35;;;;;;;1.50;0.95;;;;;;;22.88;100.00;99949.81;5073905;28;20198;-77
2023/09/23 01:30:03;;;;;;;0.70;0.70;;;;;;;22.95;100.00;99969.84;5072984;28;20277;-76
2023/09/23 01:32:40;;;;;;;16.38;1.45;;;;;;;22.99;100.00;99968.78;5073357;28;20268;-75
2023/09/23 01:35:08;;;;;;;0.73;0.73;;;;;;;22.92;100.00;99971.72;5073313;28;20701;-76
2023/09/23 01:37:35;;;;;;;0.70;0.70;;;;;;;22.92;100.00;99969.94;5073190;28;20207;-75
2023/09/23 01:40:05;;;;;;;0.88;0.88;;;;;;;22.88;100.00;99955.13;5073181;28;20212;-75
2023/09/23 01:42:32;;;;;;;3.35;1.13;;;;;;;22.94;100.00;99978.69;5072998;28;20198;-76
2023/09/23 01:44:59;;;;;;;9.95;1.60;;;;;;;22.97;100.00;99983.84;5072333;28;20207;-76
2023/09/23 01:47:26;;;;;;;1.02;1.02;;;;;;;22.84;100.00;99956.13;5073570;28;20279;-77
2023/09/23 01:49:53;;;;;;;9.00;1.60;;;;;;;22.95;100.00;99979.53;5073135;28;20194;-76
2023/09/23 01:52:19;;;;;;;0.70;0.70;;;;;;;22.73;100.00;99958.31;5073677;28;20217;-77
2023/09/23 01:54:48;;;;;;;13.05;2.22;;;;;;;22.81;100.00;99985.34;5072985;28;20629;-76
2023/09/23 01:57:17;;;;;;;1.55;1.20;;;;;;;22.82;100.00;99992.38;5073217;28;20187;-77
2023/09/23 01:59:44;;;;;;;2.85;1.17;;;;;;;22.73;100.00;99995.31;5072782;28;20199;-76
2023/09/23 02:02:11;;;;;;;0.77;0.77;;;;;;;22.67;100.00;99990.25;5054225;28;20198;-76
2023/09/23 02:04:40;;;;;;;5.35;1.13;;;;;;;22.64;100.00;99990.34;5072873;28;20210;-76
2023/09/23 02:07:07;;;;;;;3.05;1.35;;;;;;;22.62;100.00;99992.16;5072881;28;20645;-76
2023/09/23 02:09:37;;;;;;;0.90;0.90;;;;;;;22.57;100.00;99989.72;5072374;28;20264;-76
2023/09/23 02:12:04;;;;;;;0.68;0.68;;;;;;;22.57;100.00;99983.56;5073268;28;20207;-77
2023/09/23 02:14:32;;;;;;;2.83;1.00;;;;;;;22.55;100.00;99993.28;5036103;28;20284;-76
2023/09/23 02:16:59;;;;;;;4.28;1.48;;;;;;;22.45;100.00;99997.19;5035593;28;20590;-76
2023/09/23 02:19:27;;;;;;;3.60;1.60;;;;;;;22.41;100.00;99992.91;5033540;28;20198;-76
2023/09/23 02:21:54;;;;;;;4.10;1.10;;;;;;;22.35;100.00;99994.00;5070344;28;20218;-76
2023/09/23 02:24:21;;;;;;;0.65;0.65;;;;;;;22.29;100.00;99982.78;5072626;28;20195;-76
2023/09/23 02:26:48;;;;;;;2.00;1.05;;;;;;;22.38;100.00;99995.66;5072378;28;20202;-76
2023/09/23 02:29:16;;;;;;;1.73;1.33;;;;;;;22.22;100.00;99968.94;5072465;28;20210;-76
2023/09/23 02:31:47;;;;;;;7.90;2.00;;;;;;;22.36;100.00;99989.59;5072345;28;20580;-75
2023/09/23 02:34:16;;;;;;;0.93;0.93;;;;;;;22.31;100.00;100010.00;5072018;28;20600;-76
2023/09/23 02:36:45;;;;;;;1.83;0.98;;;;;;;22.09;100.00;100001.94;5071256;28;20281;-76
2023/09/23 02:39:15;;;;;;;0.98;0.93;;;;;;;22.10;100.00;100001.03;5072310;28;20698;-76
2023/09/23 02:41:45;;;;;;;1.95;0.98;;;;;;;22.11;100.00;100005.41;5072044;28;20223;-76
2023/09/23 02:44:14;;;;;;;0.68;0.68;;;;;;;22.14;100.00;99995.59;5071648;28;20204;-77
2023/09/23 02:46:41;;;;;;;4.63;1.33;;;;;;;22.08;100.00;99987.88;5072238;28;20198;-77
2023/09/23 02:49:10;;;;;;;0.55;0.55;;;;;;;22.13;100.00;99993.00;5071940;28;20198;-76
2023/09/23 02:51:37;;;;;;;2.75;1.30;;;;;;;22.02;100.00;99981.94;5071870;28;20277;-76
2023/09/23 02:54:05;;;;;;;1.15;1.13;;;;;;;22.10;100.00;99988.69;5071636;28;20256;-76
2023/09/23 02:56:34;;;;;;;5.22;1.35;;;;;;;22.17;100.00;99995.50;5071452;28;20210;-76
2023/09/23 02:59:04;;;;;;;1.02;0.93;;;;;;;22.13;100.00;99996.50;5071694;28;20230;-76
2023/09/23 03:01:30;;;;;;;2.30;1.45;;;;;;;22.10;100.00;99993.97;5071452;28;20546;-75
2023/09/23 03:04:06;;;;;;;1.13;0.90;;;;;;;22.12;100.00;99997.41;5071547;28;20660;-77
2023/09/23 03:06:38;;;;;;;0.95;0.90;;;;;;;22.22;100.00;100008.56;5039172;28;20217;-76
2023/09/23 03:09:08;;;;;;;1.05;1.05;;;;;;;22.19;100.00;100004.22;5071859;28;20765;-76
2023/09/23 03:11:42;;;;;;;2.20;1.33;;;;;;;22.17;100.00;100006.06;5071662;28;20195;-76
2023/09/23 03:14:12;;;;;;;1.13;1.00;;;;;;;22.10;100.00;100001.91;5071625;28;20270;-77
2023/09/23 03:16:44;;;;;;;2.50;1.83;;;;;;;22.06;100.00;100002.03;5071190;28;20202;-77
2023/09/23 03:19:11;;;;;;;0.75;0.75;;;;;;;22.05;100.00;100006.47;5071589;28;20234;-75
2023/09/23 03:21:41;;;;;;;1.10;1.10;;;;;;;22.13;100.00;100004.44;5071364;28;20605;-76
2023/09/23 03:24:08;;;;;;;0.80;0.80;;;;;;;22.12;100.00;99996.53;5071549;28;20215;-76
2023/09/23 03:26:34;;;;;;;3.72;1.45;;;;;;;22.10;100.00;99993.97;5036134;28;20313;-77
2023/09/23 03:29:03;;;;;;;0.60;0.60;;;;;;;22.12;100.00;100007.09;5071204;28;20194;-77
2023/09/23 03:31:30;;;;;;;1.60;1.25;;;;;;;22.05;100.00;100001.19;5036269;28;20203;-77
2023/09/23 03:33:56;;;;;;;1.95;1.13;;;;;;;22.01;100.00;100012.75;5071484;28;20229;-76
2023/09/23 03:36:25;;;;;;;1.08;0.88;;;;;;;21.61;100.00;99946.31;5070704;28;20199;-77
2023/09/23 03:38:53;;;;;;;1.58;0.90;;;;;;;22.04;100.00;100009.16;5071029;28;20206;-77
2023/09/23 03:41:19;;;;;;;0.65;0.65;;;;;;;21.94;100.00;100007.75;5071345;28;20195;-77
2023/09/23 03:43:46;;;;;;;0.98;0.95;;;;;;;21.90;100.00;100020.19;5070934;28;20207;-77
2023/09/23 03:46:14;;;;;;;0.90;0.90;;;;;;;21.92;100.00;100023.63;5071361;28;20252;-77
2023/09/23 03:48:41;;;;;;;1.10;0.77;;;;;;;21.99;100.00;100024.28;5019617;28;20260;-77
2023/09/23 03:51:09;;;;;;;1.10;1.00;;;;;;;21.79;100.00;100013.47;5071273;28;20201;-77
2023/09/23 03:53:36;;;;;;;0.70;0.70;;;;;;;21.86;100.00;100031.72;5071035;28;20218;-73
2023/09/23 03:56:06;;;;;;;1.65;1.13;;;;;;;21.95;100.00;100033.22;5070929;28;20671;-77
2023/09/23 03:58:32;;;;;;;0.90;0.90;;;;;;;21.82;100.00;100024.81;5071253;28;20199;-77
2023/09/23 04:01:04;;;;;;;4.95;1.48;;;;;;;21.95;100.00;100022.66;5071048;28;20248;-76
2023/09/23 04:03:34;;;;;;;1.20;0.90;;;;;;;21.92;100.00;100028.91;5071158;28;20202;-77
2023/09/23 04:06:01;;;;;;;5.25;1.92;;;;;;;21.80;100.00;100020.47;5070708;28;20199;-76
2023/09/23 04:08:29;;;;;;;1.35;0.95;;;;;;;21.90;100.00;100036.03;5054509;28;20637;-77
2023/09/23 04:10:56;;;;;;;2.00;1.08;;;;;;;21.71;100.00;100000.53;5075568;28;20198;-77
2023/09/23 04:13:25;;;;;;;0.98;0.98;;;;;;;22.03;100.00;100041.75;5074678;28;20321;-76
2023/09/23 04:15:53;;;;;;;2.75;1.17;;;;;;;21.47;100.00;99951.16;5075054;28;20198;-76
2023/09/23 04:18:20;;;;;;;1.10;0.93;;;;;;;21.92;100.00;100042.09;5075304;28;20281;-76
2023/09/23 04:20:50;;;;;;;1.80;0.98;;;;;;;22.01;100.00;100052.34;5074763;28;20260;-76
2023/09/23 04:23:17;;;;;;;1.75;1.02;;;;;;;21.83;100.00;100052.06;5075058;28;20207;-77
2023/09/23 04:25:44;;;;;;;0.90;0.90;;;;;;;21.80;100.00;100058.28;5075194;28;20194;-76
2023/09/23 04:28:11;;;;;;;3.00;1.60;;;;;;;21.86;100.00;100058.13;5074885;28;20612;-77
2023/09/23 04:30:39;;;;;;;0.90;0.85;;;;;;;21.96;100.00;100070.13;5074606;28;20203;-77
2023/09/23 04:33:06;;;;;;;1.50;1.40;;;;;;;21.91;100.00;100058.84;5061175;28;20195;-76
2023/09/23 04:35:34;;;;;;;1.30;1.20;;;;;;;21.79;100.00;100067.13;5074691;28;20202;-76
2023/09/23 04:38:02;;;;;;;7.57;1.73;;;;;;;21.75;100.00;100061.09;5070909;28;20584;-75
2023/09/23 04:40:29;;;;;;;1.60;1.50;;;;;;;21.47;100.00;100039.09;5039662;28;20643;-76
2023/09/23 04:42:56;;;;;;;2.60;0.88;;;;;;;21.65;100.00;100074.63;5074516;28;20209;-76
2023/09/23 04:45:24;;;;;;;1.52;1.25;;;;;;;21.35;100.00;99993.72;5074529;28;20220;-76
2023/09/23 04:47:52;;;;;;;1.23;1.23;;;;;;;22.02;100.00;100061.16;5074494;28;20198;-82
2023/09/23 04:50:22;;;;;;;0.80;0.80;;;;;;;21.98;100.00;100036.63;5068430;28;20203;-81
2023/09/23 04:52:50;;;;;;;2.05;1.63;;;;;;;22.26;100.00;100078.00;5073305;28;20252;-82
2023/09/23 04:55:17;;;;;;;5.78;1.85;;;;;;;22.22;100.00;100054.28;5073982;28;20218;-76
2023/09/23 04:57:44;;;;;;;0.82;0.82;;;;;;;22.38;100.00;100073.16;5073923;28;20194;-76
2023/09/23 05:00:15;;;;;;;0.90;0.90;;;;;;;22.46;100.00;100080.84;5073314;28;20195;-76
2023/09/23 05:02:42;;;;;;;1.77;1.30;;;;;;;22.28;100.00;100047.97;5073183;28;20207;-77
2023/09/23 05:05:11;;;;;;;1.90;1.23;;;;;;;22.71;100.00;100076.47;5073828;28;20215;-75
2023/09/23 05:07:38;;;;;;;1.52;1.42;;;;;;;22.70;100.00;100080.91;5073990;28;20201;-76
2023/09/23 05:10:07;;;;;;;0.93;0.93;;;;;;;22.67;100.00;100086.28;5073857;28;20206;-76
2023/09/23 05:12:34;;;;;;;5.55;1.58;;;;;;;22.83;100.00;100089.25;5073510;28;20279;-77
2023/09/23 05:15:01;;;;;;;2.38;1.48;;;;;;;22.99;100.00;100089.59;5073900;28;20292;-76
2023/09/23 05:17:28;;;;;;;2.45;1.13;;;;;;;23.06;100.00;100073.44;5038878;28;20206;-76
2023/09/23 05:19:55;;;;;;;1.23;1.23;;;;;;;23.05;100.00;100076.13;5073573;28;20198;-76
2023/09/23 05:22:23;;;;;;;3.00;1.52;;;;;;;23.33;100.00;100097.19;5073901;28;20191;-76
2023/09/23 05:24:56;;;;;;;1.75;1.30;;;;;;;23.21;100.00;100062.31;5073692;28;21015;-75
2023/09/23 05:27:24;;;;;;;2.65;1.45;;;;;;;23.54;100.00;100094.59;5074007;28;20659;-76
2023/09/23 05:29:53;;;;;;;1.20;1.10;;;;;;;23.64;100.00;100103.09;5035192;28;20207;-76
2023/09/23 05:32:20;;;;;;;0.90;0.90;;;;;;;23.60;100.00;100106.75;5035797;28;20640;-75
2023/09/23 05:34:51;;;;;;;1.48;1.27;;;;;;;23.37;100.00;100098.78;5053548;28;20357;-77
2023/09/23 05:37:17;;;;;;;2.53;1.52;;;;;;;23.59;100.00;100121.78;5061936;28;20650;-72
2023/09/23 05:39:46;;;;;;;3.00;1.30;;;;;;;23.70;100.00;100126.69;5073507;28;20614;-77
2023/09/23 05:42:15;;;;;;;1.75;1.17;;;;;;;23.67;100.00;100097.66;5073669;28;20199;-76
2023/09/23 05:44:43;;;;;;;10.93;2.10;;;;;;;23.83;100.00;100119.97;5073570;28;20203;-74
2023/09/23 05:47:10;;;;;;;1.40;1.38;;;;;;;23.90;100.00;100126.75;5059593;28;20650;-74
2023/09/23 05:49:38;;;;;;;45.50;10.18;;;;;;;24.05;100.00;100128.81;5073127;28;20603;-75
2023/09/23 05:52:06;;;;;;;8.70;3.38;;;;;;;24.19;100.00;100128.31;5073087;28;20206;-78
2023/09/23 05:54:33;;;;;;;1.88;1.30;;;;;;;24.32;100.00;100123.38;5073189;28;20222;-81
2023/09/23 05:57:01;;;;;;;1.90;1.17;;;;;;;24.46;100.00;100115.75;5072343;28;20674;-76
2023/09/23 05:59:28;;;;;;;1.05;0.93;;;;;;;24.48;100.00;100122.69;5062696;28;20198;-79
2023/09/23 06:01:55;;;;;;;2.95;2.00;;;;;;;24.51;100.00;100119.91;5085936;28;20230;-77
2023/09/23 06:04:22;;;;;;;3.35;1.55;;;;;;;24.53;100.00;100130.47;5049202;28;20685;-72
2023/09/23 06:06:49;;;;;;;4.72;1.52;;;;;;;24.51;100.00;100132.28;5064369;28;20328;-77
2023/09/23 06:09:16;;;;;;;1.40;1.30;;;;;;;24.56;100.00;100128.53;5061962;28;20199;-75
2023/09/23 06:11:43;;;;;;;1.80;1.17;;;;;;;24.15;100.00;100138.16;5058793;28;20207;-74
2023/09/23 06:14:12;;;;;;;2.50;1.45;;;;;;;24.36;100.00;100140.91;5058585;28;20270;-74
2023/09/23 06:16:39;;;;;;;1.08;1.08;;;;;;;23.98;100.00;100145.00;5052697;28;20277;-73
2023/09/23 06:19:06;;;;;;;5.18;1.42;;;;;;;23.79;100.00;100154.59;5072394;28;20201;-75
2023/09/23 06:21:33;;;;;;;2.30;1.50;;;;;;;23.66;100.00;100139.16;5064727;28;20195;-75
2023/09/23 06:23:59;;;;;;;59.08;17.77;;;;;;;23.69;100.00;100143.47;5075941;28;20206;-73
2023/09/23 06:26:26;;;;;;;19.48;10.77;;;;;;;23.92;100.00;100151.41;5072571;28;20217;-75
2023/09/23 06:28:53;;;;;;;1.60;1.50;;;;;;;23.88;100.00;100143.66;5084417;28;20229;-75
2023/09/23 06:31:21;;;;;;;6.13;1.83;;;;;;;24.29;100.00;100165.94;5071575;28;20203;-73
2023/09/23 06:33:48;;;;;;;3.10;1.88;;;;;;;24.38;100.00;100160.25;5047226;28;20550;-75
2023/09/23 06:36:15;;;;;;;0.85;0.85;;;;;;;24.41;100.00;100150.38;5068763;28;20194;-74
2023/09/23 06:38:41;;;;;;;3.17;1.90;;;;;;;24.39;100.00;100164.63;5052794;28;20226;-75
2023/09/23 06:41:08;;;;;;;5.38;2.05;;;;;;;24.45;100.00;100149.34;5036222;28;20945;-76
2023/09/23 06:43:35;;;;;;;3.88;2.17;;;;;;;24.77;100.00;100166.56;5071263;28;20206;-75
2023/09/23 06:46:02;;;;;;;1.33;1.20;;;;;;;24.85;99.43;100172.44;5072429;28;20198;-72
2023/09/23 06:48:30;;;;;;;7.32;2.17;;;;;;;24.92;98.46;100178.34;5072082;28;20210;-75
2023/09/23 06:51:00;;;;;;;2.72;2.08;;;;;;;24.94;97.21;100161.44;5079685;28;20661;-76
2023/09/23 06:53:28;;;;;;;2.60;1.25;;;;;;;25.01;96.78;100168.22;5057994;28;20218;-76
2023/09/23 06:55:55;;;;;;;2.28;1.52;;;;;;;25.05;97.06;100169.81;5051931;28;20301;-76
2023/09/23 06:58:21;;;;;;;5.88;1.52;;;;;;;24.98;99.73;100178.97;5055883;28;20211;-76
2023/09/23 07:00:48;;;;;;;1.60;1.50;;;;;;;25.26;96.80;100183.94;5060706;28;20211;-77
2023/09/23 07:03:15;;;;;;;0.80;0.80;;;;;;;25.13;94.50;100174.78;5070910;28;20206;-73
2023/09/23 07:05:44;;;;;;;8.57;1.75;;;;;;;25.32;94.00;100193.44;5067120;28;20210;-74
2023/09/23 07:08:11;;;;;;;2.10;1.48;;;;;;;25.18;94.46;100194.03;5050156;28;20219;-74
2023/09/23 07:10:39;;;;;;;1.65;1.55;;;;;;;25.04;93.26;100194.59;5068736;28;20238;-76
2023/09/23 07:13:06;;;;;;;2.83;1.75;;;;;;;25.09;91.14;100191.78;5029546;28;20269;-77
2023/09/23 07:15:36;;;;;;;3.25;1.35;;;;;;;25.38;88.43;100193.16;5032539;28;20223;-77
2023/09/23 07:18:04;;;;;;;1.65;1.42;;;;;;;25.08;88.38;100169.66;5049686;28;20286;-79
2023/09/23 07:20:30;;;;;;;5.60;2.00;;;;;;;25.24;85.20;100166.38;5071835;28;20207;-75
2023/09/23 07:22:59;;;;;;;7.88;1.65;;;;;;;25.38;82.63;100198.47;5068477;28;20211;-74
2023/09/23 07:25:26;;;;;;;4.65;1.50;;;;;;;25.53;84.46;100198.72;5035777;28;20674;-74
2023/09/23 07:27:53;;;;;;;1.55;1.20;;;;;;;25.87;81.79;100202.47;5070507;28;20199;-74
2023/09/23 07:30:20;;;;;;;7.25;1.80;;;;;;;26.13;81.53;100211.00;5070644;28;20202;-75
2023/09/23 07:32:47;;;;;;;5.35;1.10;;;;;;;26.13;79.90;100211.00;5070925;28;20289;-74
2023/09/23 07:35:14;;;;;;;1.58;1.20;;;;;;;26.35;78.20;100212.66;5070237;28;20222;-76
2023/09/23 07:37:42;;;;;;;1.42;1.08;;;;;;;26.60;77.78;100207.91;5069007;28;20209;-79
2023/09/23 07:40:11;;;;;;;1.67;0.98;;;;;;;26.24;77.33;100127.25;5070396;28;20636;-73
2023/09/23 07:42:38;;;;;;;6.00;1.92;;;;;;;26.59;77.20;100211.47;5049361;28;20256;-72
2023/09/23 07:45:05;;;;;;;7.30;2.72;;;;;;;26.67;77.75;100217.31;5066183;28;20194;-75
2023/09/23 07:47:32;;;;;;;8.15;2.67;;;;;;;26.69;76.91;100210.09;5069590;28;20195;-76
2023/09/23 07:49:59;;;;;;;5.63;1.42;;;;;;;26.86;76.29;100207.47;5070296;28;20304;-77
2023/09/23 07:52:26;;;;;;;12.07;2.08;;;;;;;27.05;75.54;100207.44;5066559;28;20968;-76
2023/09/23 07:54:53;;;;;;;1.70;0.90;;;;;;;27.17;75.20;100200.63;5070161;28;20713;-75
2023/09/23 07:57:22;;;;;;;1.85;1.73;;;;;;;27.33;74.12;100191.75;5070221;28;20671;-76
2023/09/23 07:59:48;;;;;;;2.10;1.30;;;;;;;27.35;73.63;100189.03;5069995;28;20206;-75
2023/09/23 08:02:15;;;;;;;1.75;1.05;;;;;;;27.57;72.96;100195.00;5038276;28;20195;-76
2023/09/23 08:04:42;;;;;;;1.40;0.88;;;;;;;27.70;72.00;100192.53;5069625;28;20232;-77
2023/09/23 08:07:09;;;;;;;5.25;1.50;;;;;;;27.76;69.71;100189.50;5070097;28;20215;-78
2023/09/23 08:09:36;;;;;;;1.65;1.55;;;;;;;27.78;69.79;100175.19;5034097;28;20205;-78
2023/09/23 08:12:03;;;;;;;5.90;1.58;;;;;;;27.92;69.06;100196.63;5069531;28;20210;-77
2023/09/23 08:14:31;;;;;;;5.65;1.65;;;;;;;28.03;68.14;100194.22;5066043;28;20231;-80
2023/09/23 08:16:58;;;;;;;1.55;1.40;;;;;;;27.92;65.93;100201.94;5057338;28;20561;-78
2023/09/23 08:19:25;;;;;;;5.80;2.28;;;;;;;27.99;67.03;100197.16;5057923;28;20211;-77
2023/09/23 08:21:52;;;;;;;3.17;1.63;;;;;;;28.24;66.19;100194.00;5054581;28;20203;-76
2023/09/23 08:24:20;;;;;;;5.47;1.85;;;;;;;28.29;64.95;100192.78;5064633;28;20611;-75
2023/09/23 08:26:47;;;;;;;5.65;1.45;;;;;;;28.41;64.71;100199.25;5068410;28;20331;-75
2023/09/23 08:29:15;;;;;;;2.65;1.08;;;;;;;28.31;63.40;100172.25;5070006;28;20249;-74
2023/09/23 08:31:43;;;;;;;3.90;1.63;;;;;;;28.55;63.34;100192.19;5069710;28;20297;-73
2023/09/23 08:34:10;;;;;;;3.17;1.35;;;;;;;28.51;62.32;100174.63;5058800;28;20655;-74
2023/09/23 08:36:37;;;;;;;4.68;1.67;;;;;;;28.51;62.12;100179.09;5031837;28;20221;-74
2023/09/23 08:39:07;;;;;;;3.03;1.38;;;;;;;28.61;61.96;100185.63;5056700;28;20191;-74
2023/09/23 08:41:35;;;;;;;2.78;1.33;;;;;;;28.70;61.97;100190.47;5059113;28;20854;-74
2023/09/23 08:44:05;;;;;;;4.30;1.42;;;;;;;28.85;61.50;100189.59;5050936;28;20211;-75
2023/09/23 08:46:33;;;;;;;6.97;1.70;;;;;;;28.85;61.63;100184.25;5057197;28;20240;-74
2023/09/23 08:49:03;;;;;;;2.35;1.25;;;;;;;28.75;60.83;100164.41;5068928;28;20655;-72
2023/09/23 08:51:31;;;;;;;2.72;1.33;;;;;;;28.82;59.76;100187.13;5068412;28;20258;-71
2023/09/23 08:53:58;;;;;;;2.83;1.80;;;;;;;28.77;61.14;100186.50;5059215;28;20214;-75
2023/09/23 08:56:24;;;;;;;3.63;1.27;;;;;;;28.96;61.22;100192.50;5069198;28;20230;-75
2023/09/23 08:58:51;;;;;;;1.45;1.00;;;;;;;29.07;58.40;100186.53;5067902;28;20214;-73
2023/09/23 09:01:18;;;;;;;3.08;1.63;;;;;;;29.17;58.02;100192.16;5061589;28;20215;-74
2023/09/23 09:03:47;;;;;;;5.05;1.70;;;;;;;29.24;56.88;100196.19;5060423;28;20214;-75
2023/09/23 09:06:18;;;;;;;1.92;1.13;;;;;;;29.33;56.70;100185.84;5070222;28;20202;-75
2023/09/23 09:08:45;;;;;;;13.15;2.65;;;;;;;29.16;57.29;100198.44;5070219;28;20588;-75
2023/09/23 09:11:12;;;;;;;2.22;0.90;;;;;;;29.33;57.76;100195.66;5072822;28;20289;-76
2023/09/23 09:13:39;;;;;;;4.40;1.73;;;;;;;29.32;57.82;100183.28;5072616;28;20608;-76
2023/09/23 09:16:06;;;;;;;4.43;1.35;;;;;;;29.64;58.19;100200.00;5072759;28;21001;-74
2023/09/23 09:18:33;;;;;;;2.85;1.30;;;;;;;29.85;57.68;100194.22;5072051;28;20209;-76
2023/09/23 09:21:00;;;;;;;3.53;1.83;;;;;;;29.64;57.92;100158.09;5048158;28;20210;-75
2023/09/23 09:23:32;;;;;;;2.35;1.98;;;;;;;29.99;57.00;100191.53;5072464;28;20693;-74
2023/09/23 09:25:59;;;;;;;6.72;1.90;;;;;;;30.11;57.08;100194.41;5037019;28;20203;-76
2023/09/23 09:28:26;;;;;;;8.35;2.33;;;;;;;30.22;57.37;100192.72;5072663;28;20198;-77
2023/09/23 09:30:57;;;;;;;3.17;1.45;;;;;;;29.98;57.64;100114.94;5072377;28;20198;-76
2023/09/23 09:33:26;;;;;;;1.80;1.13;;;;;;;30.54;57.71;100188.00;5072873;28;20263;-75
2023/09/23 09:35:55;;;;;;;2.65;1.33;;;;;;;30.72;57.43;100178.75;5071501;28;20318;-75
2023/09/23 09:38:24;;;;;;;4.68;2.22;;;;;;;30.51;57.02;100180.16;5072507;28;20230;-77
2023/09/23 09:40:56;;;;;;;6.57;2.05;;;;;;;30.28;58.27;100154.03;5072386;28;20226;-76
2023/09/23 09:43:25;;;;;;;2.45;1.55;;;;;;;30.61;58.94;100189.31;5072919;28;20234;-76
2023/09/23 09:45:54;;;;;;;4.45;2.30;;;;;;;30.71;58.51;100189.59;5072201;28;20234;-77
2023/09/23 09:48:25;;;;;;;7.13;2.30;;;;;;;30.84;57.33;100188.66;5072620;28;20210;-76
2023/09/23 09:50:54;;;;;;;2.05;1.73;;;;;;;31.04;56.58;100176.63;5072526;28;20206;-78
2023/09/23 09:53:22;;;;;;;12.07;4.32;;;;;;;31.01;56.83;100176.81;5070606;28;20207;-76
2023/09/23 09:55:49;;;;;;;4.38;2.65;;;;;;;30.66;56.00;100101.53;5063389;28;20272;-70
2023/09/23 09:58:17;;;;;;;3.53;1.52;;;;;;;31.25;55.37;100168.97;5071451;28;20194;-77
2023/09/23 10:00:50;;;;;;;2.35;1.67;;;;;;;31.23;54.73;100147.59;5071894;28;20207;-76
2023/09/23 10:03:16;;;;;;;3.70;1.42;;;;;;;31.50;54.05;100163.56;5072115;28;20275;-75
2023/09/23 10:05:46;;;;;;;4.57;2.00;;;;;;;31.50;53.06;100168.09;5070353;28;20202;-76
2023/09/23 10:08:15;;;;;;;3.60;2.03;;;;;;;31.47;52.59;100169.16;5068442;28;20210;-83
2023/09/23 10:10:47;;;;;;;4.97;1.92;;;;;;;31.81;52.44;100162.31;5071610;28;20206;-75
2023/09/23 10:13:15;;;;;;;1.42;1.00;;;;;;;32.01;51.05;100163.56;5071675;28;20206;-75
2023/09/23 10:15:43;;;;;;;2.42;1.35;;;;;;;32.14;49.69;100153.69;5071002;28;20230;-73
2023/09/23 10:18:14;;;;;;;5.43;1.67;;;;;;;32.44;49.74;100146.91;5071020;28;20213;-74
2023/09/23 10:20:42;;;;;;;1.65;1.30;;;;;;;32.37;48.81;100155.53;5062702;28;20229;-73
2023/09/23 10:23:10;;;;;;;3.95;1.30;;;;;;;31.86;48.69;100063.56;5036543;28;20285;-77
2023/09/23 10:25:38;;;;;;;3.30;1.58;;;;;;;32.37;48.71;100144.78;5070945;28;20251;-74
2023/09/23 10:28:06;;;;;;;1.20;0.93;;;;;;;32.34;49.51;100118.19;5070997;28;20291;-75
2023/09/23 10:30:35;;;;;;;1.10;1.10;;;;;;;32.40;48.25;100137.38;5061090;28;20277;-77
2023/09/23 10:33:04;;;;;;;6.57;1.92;;;;;;;32.47;48.41;100132.41;5068674;28;20194;-76
2023/09/23 10:35:33;;;;;;;2.17;1.10;;;;;;;32.32;48.33;100098.66;5061741;28;20706;-73
2023/09/23 10:38:01;;;;;;;1.85;1.17;;;;;;;32.58;46.96;100132.44;5066588;28;20575;-72
2023/09/23 10:40:28;;;;;;;4.32;1.42;;;;;;;32.36;46.05;100119.78;5071730;28;20202;-74
2023/09/23 10:42:55;;;;;;;2.97;1.73;;;;;;;32.52;46.07;100111.44;5070834;28;20206;-77
2023/09/23 10:45:21;;;;;;;5.63;1.98;;;;;;;32.64;47.36;100112.38;5071113;28;20204;-77
2023/09/23 10:47:48;;;;;;;5.15;1.98;;;;;;;32.74;46.58;100116.94;5071239;28;20202;-77
2023/09/23 10:50:16;;;;;;;7.43;1.70;;;;;;;33.03;47.34;100108.47;5071607;28;20202;-78
2023/09/23 10:52:44;;;;;;;1.77;1.27;;;;;;;33.18;46.99;100112.66;5036112;28;20198;-80
2023/09/23 10:55:11;;;;;;;20.98;1.67;;;;;;;33.11;46.56;100106.06;5069442;28;20608;-83
2023/09/23 10:57:38;;;;;;;2.35;1.75;;;;;;;33.16;46.14;100099.34;5071129;28;20202;-81
2023/09/23 11:00:13;;;;;;;3.00;1.75;;;;;;;33.11;45.70;100052.28;5071083;28;20197;-81
2023/09/23 11:02:44;;;;;;;8.27;1.80;;;;;;;33.54;45.00;100092.75;5068065;28;20287;-78
2023/09/23 11:05:11;;;;;;;4.28;1.45;;;;;;;33.01;45.06;100005.59;5068399;28;20198;-76
2023/09/23 11:07:42;;;;;;;5.13;1.95;;;;;;;33.65;45.31;100088.28;5070684;28;20198;-77
2023/09/23 11:10:13;;;;;;;7.20;1.83;;;;;;;33.77;45.25;100084.63;5068405;28;20209;-76
2023/09/23 11:12:43;;;;;;;3.40;1.45;;;;;;;33.94;45.25;100076.97;5045376;28;20298;-78
2023/09/23 11:15:12;;;;;;;4.05;1.40;;;;;;;33.79;44.84;100073.69;5034271;28;20688;-78
2023/09/23 11:17:41;;;;;;;4.35;2.17;;;;;;;33.85;44.21;100068.69;5070257;28;20286;-73
2023/09/23 11:20:10;;;;;;;2.05;1.20;;;;;;;33.83;42.81;100032.97;5070236;28;20190;-74
2023/09/23 11:22:41;;;;;;;0.52;0.52;;;;;;;33.85;41.52;100019.41;5068100;28;20190;-75
2023/09/23 11:25:10;;;;;;;2.65;1.30;;;;;;;34.00;41.70;100039.66;5070031;28;20206;-74